createdAt,value
2023-07-22T00:00:15.117Z,1002.69
2023-07-22T00:01:01.166Z,1002.67
2023-07-22T00:01:12.110Z,1002.69
2023-07-22T00:01:42.081Z,1002.68
2023-07-22T00:02:12.071Z,1002.70
2023-07-22T00:02:42.112Z,1002.72
2023-07-22T00:03:12.118Z,1002.70
2023-07-22T00:03:42.121Z,1002.71
2023-07-22T00:04:12.087Z,1002.69
2023-07-22T00:04:42.077Z,1002.70
2023-07-22T00:05:12.058Z,1002.72
2023-07-22T00:05:42.457Z,1002.70
2023-07-22T00:06:15.076Z,1002.70
2023-07-22T00:07:00.397Z,1002.69
2023-07-22T00:07:12.018Z,1002.69
2023-07-22T00:07:42.016Z,1002.67
2023-07-22T00:08:12.102Z,1002.66
2023-07-22T00:08:42.036Z,1002.66
2023-07-22T00:09:12.016Z,1002.66
2023-07-22T00:09:42.097Z,1002.65
2023-07-22T00:10:12.018Z,1002.64
2023-07-22T00:10:42.018Z,1002.64
2023-07-22T00:11:11.982Z,1002.63
2023-07-22T00:11:41.976Z,1002.64
2023-07-22T00:12:15.587Z,1002.65
2023-07-22T00:13:00.991Z,1002.64
2023-07-22T00:13:11.982Z,1002.63
2023-07-22T00:13:42.013Z,1002.64
2023-07-22T00:14:12.071Z,1002.65
2023-07-22T00:14:41.962Z,1002.64
2023-07-22T00:15:11.921Z,1002.67
2023-07-22T00:15:41.929Z,1002.68
2023-07-22T00:16:11.912Z,1002.67
2023-07-22T00:16:41.929Z,1002.68
2023-07-22T00:17:11.993Z,1002.68
2023-07-22T00:17:42.017Z,1002.69
2023-07-22T00:18:14.921Z,1002.67
2023-07-22T00:19:01.669Z,1002.67
2023-07-22T00:19:11.876Z,1002.69
2023-07-22T00:19:41.875Z,1002.68
2023-07-22T00:20:11.892Z,1002.70
2023-07-22T00:20:41.880Z,1002.68
2023-07-22T00:21:11.897Z,1002.69
2023-07-22T00:21:41.920Z,1002.71
2023-07-22T00:22:11.863Z,1002.73
2023-07-22T00:22:41.863Z,1002.73
2023-07-22T00:23:11.860Z,1002.74
2023-07-22T00:23:41.867Z,1002.74
2023-07-22T00:24:14.876Z,1002.74
2023-07-22T00:25:00.475Z,1002.74
2023-07-22T00:25:11.893Z,1002.73
2023-07-22T00:25:41.812Z,1002.75
2023-07-22T00:26:11.846Z,1002.75
2023-07-22T00:26:41.851Z,1002.76
2023-07-22T00:27:11.794Z,1002.74
2023-07-22T00:27:41.802Z,1002.76
2023-07-22T00:28:11.792Z,1002.77
2023-07-22T00:28:41.795Z,1002.80
2023-07-22T00:29:11.818Z,1002.79
2023-07-22T00:29:41.794Z,1002.79
2023-07-22T00:30:14.784Z,1002.80
2023-07-22T00:31:00.463Z,1002.79
2023-07-22T00:31:11.825Z,1002.80
2023-07-22T00:31:41.748Z,1002.81
2023-07-22T00:32:11.776Z,1002.80
2023-07-22T00:32:41.821Z,1002.80
2023-07-22T00:33:11.819Z,1002.80
2023-07-22T00:33:41.780Z,1002.81
2023-07-22T00:34:11.728Z,1002.81
2023-07-22T00:34:41.750Z,1002.83
2023-07-22T00:35:11.717Z,1002.81
2023-07-22T00:35:41.753Z,1002.82
2023-07-22T00:36:14.753Z,1002.84
2023-07-22T00:36:59.984Z,1002.83
2023-07-22T00:37:11.699Z,1002.83
2023-07-22T00:37:41.687Z,1002.81
2023-07-22T00:38:11.686Z,1002.83
2023-07-22T00:38:41.822Z,1002.84
2023-07-22T00:39:11.696Z,1002.82
2023-07-22T00:39:41.669Z,1002.83
2023-07-22T00:40:11.667Z,1002.84
2023-07-22T00:40:41.671Z,1002.87
2023-07-22T00:41:11.663Z,1002.83
2023-07-22T00:41:41.664Z,1002.85
2023-07-22T00:42:15.608Z,1002.83
2023-07-22T00:42:59.756Z,1002.85
2023-07-22T00:43:11.680Z,1002.85
2023-07-22T00:43:41.638Z,1002.85
2023-07-22T00:44:11.652Z,1002.85
2023-07-22T00:45:14.146Z,1002.84
2023-07-22T00:45:22.299Z,1002.85
2023-07-22T00:45:49.653Z,1002.85
2023-07-22T00:46:19.677Z,1002.85
2023-07-22T00:46:50.606Z,1002.83
2023-07-22T00:47:19.614Z,1002.82
2023-07-22T00:47:52.653Z,1002.83
2023-07-22T00:48:37.733Z,1002.82
2023-07-22T00:48:49.592Z,1002.81
2023-07-22T00:49:19.563Z,1002.80
2023-07-22T00:49:49.601Z,1002.80
2023-07-22T00:50:19.572Z,1002.79
2023-07-22T00:50:49.572Z,1002.78
2023-07-22T00:51:19.572Z,1002.79
2023-07-22T00:51:50.964Z,1002.79
2023-07-22T00:52:19.562Z,1002.76
2023-07-22T00:52:49.534Z,1002.77
2023-07-22T00:53:19.632Z,1002.76
2023-07-22T00:53:52.535Z,1002.75
2023-07-22T00:54:37.683Z,1002.76
2023-07-22T00:54:49.536Z,1002.76
2023-07-22T00:55:19.529Z,1002.74
2023-07-22T00:55:49.537Z,1002.74
2023-07-22T00:56:19.656Z,1002.74
2023-07-22T00:56:50.189Z,1002.73
2023-07-22T00:57:19.498Z,1002.73
2023-07-22T00:57:49.494Z,1002.74
2023-07-22T00:58:19.498Z,1002.74
2023-07-22T00:58:49.488Z,1002.73
2023-07-22T00:59:19.481Z,1002.75
2023-07-22T00:59:52.495Z,1002.75
2023-07-22T01:00:37.595Z,1002.76
2023-07-22T01:00:49.538Z,1002.77
2023-07-22T01:01:19.490Z,1002.76
2023-07-22T01:01:49.465Z,1002.76
2023-07-22T01:02:19.460Z,1002.75
2023-07-22T01:02:49.442Z,1002.74
2023-07-22T01:03:19.449Z,1002.73
2023-07-22T01:03:49.445Z,1002.73
2023-07-22T01:04:19.435Z,1002.73
2023-07-22T01:04:49.418Z,1002.72
2023-07-22T01:05:19.472Z,1002.74
2023-07-22T01:05:52.420Z,1002.74
2023-07-22T01:06:37.505Z,1002.74
2023-07-22T01:06:49.388Z,1002.74
2023-07-22T01:07:19.409Z,1002.76
2023-07-22T01:07:49.379Z,1002.75
2023-07-22T01:08:19.460Z,1002.75
2023-07-22T01:08:49.373Z,1002.77
2023-07-22T01:09:19.394Z,1002.74
2023-07-22T01:09:49.366Z,1002.75
2023-07-22T01:10:19.395Z,1002.74
2023-07-22T01:10:49.334Z,1002.73
2023-07-22T01:11:19.447Z,1002.75
2023-07-22T01:11:52.363Z,1002.73
2023-07-22T01:12:37.454Z,1002.74
2023-07-22T01:12:49.334Z,1002.72
2023-07-22T01:13:19.369Z,1002.73
2023-07-22T01:13:49.314Z,1002.73
2023-07-22T01:14:19.356Z,1002.73
2023-07-22T01:14:49.324Z,1002.72
2023-07-22T01:15:19.376Z,1002.73
2023-07-22T01:15:49.326Z,1002.73
2023-07-22T01:16:19.387Z,1002.72
2023-07-22T01:16:49.321Z,1002.70
2023-07-22T01:17:19.291Z,1002.70
2023-07-22T01:17:52.449Z,1002.72
2023-07-22T01:18:37.363Z,1002.70
2023-07-22T01:18:49.242Z,1002.71
2023-07-22T01:19:19.237Z,1002.71
2023-07-22T01:19:49.304Z,1002.69
2023-07-22T01:20:19.247Z,1002.73
2023-07-22T01:20:49.260Z,1002.73
2023-07-22T01:21:19.238Z,1002.74
2023-07-22T01:21:49.231Z,1002.74
2023-07-22T01:22:19.248Z,1002.75
2023-07-22T01:22:49.233Z,1002.73
2023-07-22T01:23:19.219Z,1002.73
2023-07-22T01:23:52.230Z,1002.73
2023-07-22T01:24:37.364Z,1002.72
2023-07-22T01:24:49.304Z,1002.74
2023-07-22T01:25:19.183Z,1002.75
2023-07-22T01:25:49.185Z,1002.74
2023-07-22T01:26:19.165Z,1002.76
2023-07-22T01:26:49.224Z,1002.76
2023-07-22T01:27:19.188Z,1002.78
2023-07-22T01:27:49.145Z,1002.79
2023-07-22T01:28:19.137Z,1002.79
2023-07-22T01:28:49.147Z,1002.81
2023-07-22T01:29:19.150Z,1002.79
2023-07-22T01:29:52.152Z,1002.82
2023-07-22T01:30:37.293Z,1002.79
2023-07-22T01:30:49.208Z,1002.82
2023-07-22T01:31:19.167Z,1002.80
2023-07-22T01:31:49.127Z,1002.80
2023-07-22T01:32:19.175Z,1002.80
2023-07-22T01:32:49.165Z,1002.81
2023-07-22T01:33:19.101Z,1002.81
2023-07-22T01:33:49.080Z,1002.81
2023-07-22T01:34:19.094Z,1002.80
2023-07-22T01:34:49.099Z,1002.79
2023-07-22T01:35:19.113Z,1002.78
2023-07-22T01:35:52.096Z,1002.79
2023-07-22T01:36:37.218Z,1002.80
2023-07-22T01:36:49.047Z,1002.77
2023-07-22T01:37:19.046Z,1002.77
2023-07-22T01:37:49.040Z,1002.77
2023-07-22T01:38:19.118Z,1002.76
2023-07-22T01:38:49.031Z,1002.75
2023-07-22T01:39:19.061Z,1002.75
2023-07-22T01:39:49.033Z,1002.75
2023-07-22T01:40:19.021Z,1002.75
2023-07-22T01:40:49.069Z,1002.76
2023-07-22T01:41:19.014Z,1002.75
2023-07-22T01:41:52.038Z,1002.75
2023-07-22T01:42:37.131Z,1002.76
2023-07-22T01:42:48.982Z,1002.77
2023-07-22T01:43:18.997Z,1002.76
2023-07-22T01:43:48.984Z,1002.77
2023-07-22T01:44:19.020Z,1002.78
2023-07-22T01:44:49.110Z,1002.79
2023-07-22T01:45:19.001Z,1002.80
2023-07-22T01:45:48.960Z,1002.81
2023-07-22T01:46:18.990Z,1002.82
2023-07-22T01:46:49.076Z,1002.81
2023-07-22T01:47:18.929Z,1002.81
2023-07-22T01:47:52.042Z,1002.82
2023-07-22T01:48:37.063Z,1002.82
2023-07-22T01:48:48.992Z,1002.83
2023-07-22T01:49:18.921Z,1002.80
2023-07-22T01:49:48.927Z,1002.81
2023-07-22T01:50:18.979Z,1002.80
2023-07-22T01:50:48.921Z,1002.80
2023-07-22T01:51:18.895Z,1002.79
2023-07-22T01:51:48.911Z,1002.78
2023-07-22T01:52:18.898Z,1002.78
2023-07-22T01:52:48.894Z,1002.78
2023-07-22T01:53:18.946Z,1002.77
2023-07-22T01:53:51.964Z,1002.78
2023-07-22T01:54:36.986Z,1002.77
2023-07-22T01:54:48.861Z,1002.78
2023-07-22T01:55:18.883Z,1002.79
2023-07-22T01:55:48.861Z,1002.77
2023-07-22T01:56:18.855Z,1002.79
2023-07-22T01:56:48.841Z,1002.78
2023-07-22T01:57:18.842Z,1002.78
2023-07-22T01:57:48.841Z,1002.78
2023-07-22T01:58:18.863Z,1002.78
2023-07-22T01:58:48.842Z,1002.78
2023-07-22T01:59:18.831Z,1002.78
2023-07-22T01:59:51.840Z,1002.79
2023-07-22T02:00:36.951Z,1002.79
2023-07-22T02:00:48.790Z,1002.80
2023-07-22T02:01:18.894Z,1002.79
2023-07-22T02:01:48.875Z,1002.79
2023-07-22T02:02:18.784Z,1002.80
2023-07-22T02:02:48.939Z,1002.80
2023-07-22T02:03:18.984Z,1002.81
2023-07-22T02:03:48.911Z,1002.79
2023-07-22T02:04:18.798Z,1002.80
2023-07-22T02:04:48.823Z,1002.80
2023-07-22T02:05:18.762Z,1002.80
2023-07-22T02:05:51.783Z,1002.79
2023-07-22T02:06:36.894Z,1002.79
2023-07-22T02:06:48.735Z,1002.78
2023-07-22T02:07:18.728Z,1002.79
2023-07-22T02:07:48.716Z,1002.78
2023-07-22T02:08:18.741Z,1002.78
2023-07-22T02:08:48.735Z,1002.78
2023-07-22T02:09:18.726Z,1002.79
2023-07-22T02:09:48.692Z,1002.78
2023-07-22T02:10:18.744Z,1002.79
2023-07-22T02:10:48.705Z,1002.79
2023-07-22T02:11:18.744Z,1002.80
2023-07-22T02:11:51.696Z,1002.80
2023-07-22T02:12:36.783Z,1002.82
2023-07-22T02:12:48.666Z,1002.80
2023-07-22T02:13:18.738Z,1002.83
2023-07-22T02:13:48.666Z,1002.82
2023-07-22T02:14:18.660Z,1002.83
2023-07-22T02:14:48.646Z,1002.85
2023-07-22T02:15:18.680Z,1002.85
2023-07-22T02:15:48.679Z,1002.87
2023-07-22T02:16:18.682Z,1002.88
2023-07-22T02:16:48.690Z,1002.89
2023-07-22T02:17:18.647Z,1002.89
2023-07-22T02:17:51.701Z,1002.89
2023-07-22T02:18:36.785Z,1002.89
2023-07-22T02:18:48.668Z,1002.90
2023-07-22T02:19:18.642Z,1002.92
2023-07-22T02:19:48.599Z,1002.93
2023-07-22T02:20:18.586Z,1002.94
2023-07-22T02:20:48.587Z,1002.96
2023-07-22T02:21:18.593Z,1002.98
2023-07-22T02:21:48.587Z,1002.99
2023-07-22T02:22:18.598Z,1003.01
2023-07-22T02:22:48.573Z,1003.01
2023-07-22T02:23:18.648Z,1003.02
2023-07-22T02:23:51.702Z,1003.04
2023-07-22T02:24:36.745Z,1003.06
2023-07-22T02:24:48.663Z,1003.06
2023-07-22T02:25:18.564Z,1003.06
2023-07-22T02:25:48.591Z,1003.05
2023-07-22T02:26:18.521Z,1003.06
2023-07-22T02:26:48.516Z,1003.06
2023-07-22T02:27:18.548Z,1003.06
2023-07-22T02:27:48.551Z,1003.07
2023-07-22T02:28:18.534Z,1003.07
2023-07-22T02:28:48.558Z,1003.07
2023-07-22T02:29:18.498Z,1003.07
2023-07-22T02:29:51.503Z,1003.06
2023-07-22T02:30:36.636Z,1003.06
2023-07-22T02:30:48.488Z,1003.07
2023-07-22T02:31:18.514Z,1003.07
2023-07-22T02:31:48.570Z,1003.07
2023-07-22T02:32:18.501Z,1003.08
2023-07-22T02:32:48.481Z,1003.08
2023-07-22T02:33:18.536Z,1003.08
2023-07-22T02:33:48.465Z,1003.09
2023-07-22T02:34:18.474Z,1003.09
2023-07-22T02:34:48.440Z,1003.08
2023-07-22T02:35:18.425Z,1003.08
2023-07-22T02:35:51.453Z,1003.08
2023-07-22T02:36:36.574Z,1003.08
2023-07-22T02:36:48.449Z,1003.08
2023-07-22T02:37:18.432Z,1003.07
2023-07-22T02:37:48.435Z,1003.07
2023-07-22T02:38:18.424Z,1003.07
2023-07-22T02:38:48.397Z,1003.06
2023-07-22T02:39:18.395Z,1003.05
2023-07-22T02:39:48.369Z,1003.04
2023-07-22T02:40:18.397Z,1003.04
2023-07-22T02:40:48.402Z,1003.05
2023-07-22T02:41:21.410Z,1003.04
2023-07-22T02:42:06.538Z,1003.03
2023-07-22T02:42:18.338Z,1003.04
2023-07-22T02:42:48.345Z,1003.03
2023-07-22T02:43:18.364Z,1003.04
2023-07-22T02:43:48.332Z,1003.05
2023-07-22T02:44:18.372Z,1003.06
2023-07-22T02:44:48.330Z,1003.06
2023-07-22T02:45:18.348Z,1003.05
2023-07-22T02:45:48.398Z,1003.05
2023-07-22T02:46:18.389Z,1003.06
2023-07-22T02:46:48.264Z,1003.06
2023-07-22T02:47:21.278Z,1003.06
2023-07-22T02:48:06.374Z,1003.08
2023-07-22T02:48:18.254Z,1003.09
2023-07-22T02:48:48.241Z,1003.10
2023-07-22T02:49:18.272Z,1003.11
2023-07-22T02:49:48.219Z,1003.12
2023-07-22T02:50:18.234Z,1003.12
2023-07-22T02:50:48.290Z,1003.12
2023-07-22T02:51:18.219Z,1003.12
2023-07-22T02:51:48.273Z,1003.12
2023-07-22T02:52:18.264Z,1003.12
2023-07-22T02:52:48.203Z,1003.12
2023-07-22T02:53:21.227Z,1003.13
2023-07-22T02:54:06.333Z,1003.12
2023-07-22T02:54:18.195Z,1003.12
2023-07-22T02:54:48.178Z,1003.13
2023-07-22T02:55:18.191Z,1003.14
2023-07-22T02:55:48.177Z,1003.15
2023-07-22T02:56:18.158Z,1003.15
2023-07-22T02:56:48.149Z,1003.15
2023-07-22T02:57:18.164Z,1003.16
2023-07-22T02:57:48.168Z,1003.16
2023-07-22T02:58:18.134Z,1003.16
2023-07-22T02:58:48.134Z,1003.16
2023-07-22T02:59:21.161Z,1003.16
2023-07-22T03:00:06.268Z,1003.15
2023-07-22T03:00:18.146Z,1003.15
2023-07-22T03:00:48.140Z,1003.14
2023-07-22T03:01:18.161Z,1003.13
2023-07-22T03:01:48.149Z,1003.14
2023-07-22T03:02:18.211Z,1003.13
2023-07-22T03:02:48.141Z,1003.14
2023-07-22T03:03:18.078Z,1003.14
2023-07-22T03:03:48.116Z,1003.13
2023-07-22T03:04:18.103Z,1003.14
2023-07-22T03:04:48.109Z,1003.14
2023-07-22T03:05:21.560Z,1003.15
2023-07-22T03:06:06.193Z,1003.16
2023-07-22T03:06:18.048Z,1003.16
2023-07-22T03:06:48.043Z,1003.16
2023-07-22T03:07:18.029Z,1003.16
2023-07-22T03:07:48.048Z,1003.15
2023-07-22T03:08:18.050Z,1003.16
2023-07-22T03:08:48.025Z,1003.15
2023-07-22T03:09:18.037Z,1003.15
2023-07-22T03:09:48.027Z,1003.16
2023-07-22T03:10:18.048Z,1003.16
2023-07-22T03:10:47.985Z,1003.16
2023-07-22T03:11:21.020Z,1003.15
2023-07-22T03:12:06.144Z,1003.15
2023-07-22T03:12:17.975Z,1003.15
2023-07-22T03:12:47.958Z,1003.16
2023-07-22T03:13:17.965Z,1003.16
2023-07-22T03:13:47.966Z,1003.16
2023-07-22T03:14:17.992Z,1003.16
2023-07-22T03:14:47.978Z,1003.15
2023-07-22T03:15:17.975Z,1003.16
2023-07-22T03:15:47.968Z,1003.15
2023-07-22T03:16:17.981Z,1003.16
2023-07-22T03:16:47.980Z,1003.16
2023-07-22T03:17:20.987Z,1003.17
2023-07-22T03:18:06.139Z,1003.17
2023-07-22T03:18:17.940Z,1003.17
2023-07-22T03:18:47.952Z,1003.18
2023-07-22T03:19:17.941Z,1003.18
2023-07-22T03:19:50.096Z,1003.20
2023-07-22T03:20:17.952Z,1003.20
2023-07-22T03:20:47.908Z,1003.22
2023-07-22T03:21:17.919Z,1003.23
2023-07-22T03:21:47.914Z,1003.22
2023-07-22T03:22:17.917Z,1003.23
2023-07-22T03:22:47.881Z,1003.24
2023-07-22T03:23:20.960Z,1003.25
2023-07-22T03:24:05.995Z,1003.27
2023-07-22T03:24:17.921Z,1003.26
2023-07-22T03:24:47.860Z,1003.24
2023-07-22T03:25:17.894Z,1003.22
2023-07-22T03:25:47.845Z,1003.20
2023-07-22T03:26:17.903Z,1003.21
2023-07-22T03:26:47.824Z,1003.22
2023-07-22T03:27:17.847Z,1003.22
2023-07-22T03:27:47.818Z,1003.22
2023-07-22T03:28:17.864Z,1003.21
2023-07-22T03:28:47.805Z,1003.20
2023-07-22T03:29:20.924Z,1003.21
2023-07-22T03:30:05.907Z,1003.23
2023-07-22T03:30:17.838Z,1003.23
2023-07-22T03:30:47.816Z,1003.24
2023-07-22T03:31:17.807Z,1003.24
2023-07-22T03:31:47.868Z,1003.24
2023-07-22T03:32:17.817Z,1003.23
2023-07-22T03:32:47.899Z,1003.24
2023-07-22T03:33:17.804Z,1003.24
2023-07-22T03:33:47.779Z,1003.24
2023-07-22T03:34:17.877Z,1003.23
2023-07-22T03:34:47.763Z,1003.22
2023-07-22T03:35:20.805Z,1003.22
2023-07-22T03:36:05.835Z,1003.20
2023-07-22T03:36:17.745Z,1003.20
2023-07-22T03:36:47.717Z,1003.20
2023-07-22T03:37:17.761Z,1003.21
2023-07-22T03:37:47.716Z,1003.23
2023-07-22T03:38:17.823Z,1003.24
2023-07-22T03:38:47.740Z,1003.25
2023-07-22T03:39:17.702Z,1003.26
2023-07-22T03:39:47.712Z,1003.27
2023-07-22T03:40:17.721Z,1003.29
2023-07-22T03:40:47.728Z,1003.31
2023-07-22T03:41:20.767Z,1003.30
2023-07-22T03:42:05.839Z,1003.27
2023-07-22T03:42:17.661Z,1003.26
2023-07-22T03:42:47.685Z,1003.25
2023-07-22T03:43:17.681Z,1003.26
2023-07-22T03:43:47.631Z,1003.26
2023-07-22T03:44:17.652Z,1003.27
2023-07-22T03:44:47.653Z,1003.28
2023-07-22T03:45:17.656Z,1003.29
2023-07-22T03:45:47.649Z,1003.31
2023-07-22T03:46:17.643Z,1003.32
2023-07-22T03:46:47.670Z,1003.34
2023-07-22T03:47:20.669Z,1003.34
2023-07-22T03:48:05.738Z,1003.35
2023-07-22T03:48:17.597Z,1003.34
2023-07-22T03:48:47.573Z,1003.34
2023-07-22T03:49:17.576Z,1003.34
2023-07-22T03:49:47.597Z,1003.34
2023-07-22T03:50:17.587Z,1003.32
2023-07-22T03:50:47.612Z,1003.32
2023-07-22T03:51:20.677Z,1003.31
2023-07-22T03:51:47.569Z,1003.30
2023-07-22T03:52:17.647Z,1003.31
2023-07-22T03:52:47.550Z,1003.31
2023-07-22T03:53:20.572Z,1003.31
2023-07-22T03:54:05.672Z,1003.32
2023-07-22T03:54:17.529Z,1003.32
2023-07-22T03:54:47.522Z,1003.31
2023-07-22T03:55:17.512Z,1003.31
2023-07-22T03:55:47.598Z,1003.30
2023-07-22T03:56:17.529Z,1003.31
2023-07-22T03:56:47.620Z,1003.31
2023-07-22T03:57:17.524Z,1003.31
2023-07-22T03:57:47.515Z,1003.32
2023-07-22T03:58:17.512Z,1003.33
2023-07-22T03:58:47.588Z,1003.32
2023-07-22T03:59:20.529Z,1003.32
2023-07-22T04:00:05.582Z,1003.34
2023-07-22T04:00:17.539Z,1003.34
2023-07-22T04:00:47.494Z,1003.35
2023-07-22T04:01:17.475Z,1003.37
2023-07-22T04:01:47.450Z,1003.36
2023-07-22T04:02:17.466Z,1003.37
2023-07-22T04:02:47.473Z,1003.36
2023-07-22T04:03:17.577Z,1003.37
2023-07-22T04:03:47.491Z,1003.38
2023-07-22T04:04:17.445Z,1003.37
2023-07-22T04:04:47.419Z,1003.36
2023-07-22T04:05:20.477Z,1003.35
2023-07-22T04:06:05.588Z,1003.37
2023-07-22T04:06:17.407Z,1003.37
2023-07-22T04:06:47.399Z,1003.37
2023-07-22T04:07:17.386Z,1003.38
2023-07-22T04:07:47.388Z,1003.38
2023-07-22T04:08:17.390Z,1003.39
2023-07-22T04:08:47.530Z,1003.38
2023-07-22T04:09:17.434Z,1003.37
2023-07-22T04:09:47.463Z,1003.35
2023-07-22T04:10:17.401Z,1003.35
2023-07-22T04:10:47.362Z,1003.36
2023-07-22T04:11:20.371Z,1003.36
2023-07-22T04:12:05.461Z,1003.37
2023-07-22T04:12:17.337Z,1003.37
2023-07-22T04:12:47.343Z,1003.37
2023-07-22T04:13:17.342Z,1003.36
2023-07-22T04:13:47.343Z,1003.36
2023-07-22T04:14:17.343Z,1003.37
2023-07-22T04:14:47.362Z,1003.38
2023-07-22T04:15:17.315Z,1003.40
2023-07-22T04:15:47.309Z,1003.42
2023-07-22T04:16:17.308Z,1003.43
2023-07-22T04:16:47.312Z,1003.43
2023-07-22T04:17:20.397Z,1003.44
2023-07-22T04:18:05.521Z,1003.45
2023-07-22T04:18:17.346Z,1003.44
2023-07-22T04:18:47.273Z,1003.45
2023-07-22T04:19:17.270Z,1003.45
2023-07-22T04:19:47.354Z,1003.46
2023-07-22T04:20:17.277Z,1003.47
2023-07-22T04:20:47.244Z,1003.47
2023-07-22T04:21:17.245Z,1003.48
2023-07-22T04:21:47.230Z,1003.48
2023-07-22T04:22:17.255Z,1003.48
2023-07-22T04:22:47.226Z,1003.47
2023-07-22T04:23:20.255Z,1003.48
2023-07-22T04:24:05.371Z,1003.46
2023-07-22T04:24:17.278Z,1003.46
2023-07-22T04:24:47.340Z,1003.47
2023-07-22T04:25:17.383Z,1003.48
2023-07-22T04:25:47.206Z,1003.48
2023-07-22T04:26:17.214Z,1003.48
2023-07-22T04:26:47.236Z,1003.48
2023-07-22T04:27:17.253Z,1003.49
2023-07-22T04:27:47.224Z,1003.48
2023-07-22T04:28:17.183Z,1003.47
2023-07-22T04:28:47.193Z,1003.46
2023-07-22T04:29:20.213Z,1003.46
2023-07-22T04:30:05.265Z,1003.46
2023-07-22T04:30:17.166Z,1003.47
2023-07-22T04:30:47.165Z,1003.46
2023-07-22T04:31:17.191Z,1003.47
2023-07-22T04:31:47.165Z,1003.48
2023-07-22T04:32:17.179Z,1003.48
2023-07-22T04:32:47.140Z,1003.48
2023-07-22T04:33:17.234Z,1003.49
2023-07-22T04:33:47.177Z,1003.49
2023-07-22T04:34:17.147Z,1003.50
2023-07-22T04:34:47.131Z,1003.51
2023-07-22T04:35:20.107Z,1003.52
2023-07-22T04:36:05.909Z,1003.52
2023-07-22T04:36:17.084Z,1003.52
2023-07-22T04:36:47.087Z,1003.51
2023-07-22T04:37:17.114Z,1003.51
2023-07-22T04:37:47.071Z,1003.51
2023-07-22T04:38:17.064Z,1003.50
2023-07-22T04:38:47.067Z,1003.51
2023-07-22T04:39:17.097Z,1003.50
2023-07-22T04:39:47.059Z,1003.51
2023-07-22T04:40:17.030Z,1003.50
2023-07-22T04:40:47.041Z,1003.49
2023-07-22T04:41:20.059Z,1003.49
2023-07-22T04:42:05.146Z,1003.47
2023-07-22T04:42:17.047Z,1003.47
2023-07-22T04:42:47.041Z,1003.47
2023-07-22T04:43:17.022Z,1003.48
2023-07-22T04:43:47.022Z,1003.48
2023-07-22T04:44:17.001Z,1003.49
2023-07-22T04:44:47.009Z,1003.48
2023-07-22T04:45:17.029Z,1003.48
2023-07-22T04:45:47.003Z,1003.48
2023-07-22T04:46:16.988Z,1003.49
2023-07-22T04:46:47.153Z,1003.49
2023-07-22T04:47:20.086Z,1003.51
2023-07-22T04:48:05.186Z,1003.52
2023-07-22T04:48:16.963Z,1003.53
2023-07-22T04:48:47.050Z,1003.52
2023-07-22T04:49:16.960Z,1003.53
2023-07-22T04:49:46.970Z,1003.52
2023-07-22T04:50:16.934Z,1003.53
2023-07-22T04:50:46.941Z,1003.53
2023-07-22T04:51:16.906Z,1003.53
2023-07-22T04:51:46.968Z,1003.55
2023-07-22T04:52:16.923Z,1003.56
2023-07-22T04:52:46.906Z,1003.57
2023-07-22T04:53:19.916Z,1003.57
2023-07-22T04:54:06.031Z,1003.56
2023-07-22T04:54:16.900Z,1003.56
2023-07-22T04:54:46.892Z,1003.56
2023-07-22T04:55:16.885Z,1003.54
2023-07-22T04:55:46.891Z,1003.55
2023-07-22T04:56:16.882Z,1003.55
2023-07-22T04:56:46.960Z,1003.54
2023-07-22T04:57:16.859Z,1003.55
2023-07-22T04:57:46.844Z,1003.55
2023-07-22T04:58:16.892Z,1003.56
2023-07-22T04:58:46.866Z,1003.56
2023-07-22T04:59:19.866Z,1003.56
2023-07-22T05:00:05.016Z,1003.57
2023-07-22T05:00:16.844Z,1003.56
2023-07-22T05:00:46.870Z,1003.58
2023-07-22T05:01:16.962Z,1003.59
2023-07-22T05:01:46.834Z,1003.60
2023-07-22T05:02:16.812Z,1003.59
2023-07-22T05:02:46.986Z,1003.58
2023-07-22T05:03:16.896Z,1003.56
2023-07-22T05:03:46.852Z,1003.57
2023-07-22T05:04:16.781Z,1003.57
2023-07-22T05:04:46.823Z,1003.57
2023-07-22T05:05:19.816Z,1003.57
2023-07-22T05:06:04.908Z,1003.56
2023-07-22T05:06:16.771Z,1003.57
2023-07-22T05:06:46.792Z,1003.57
2023-07-22T05:07:16.787Z,1003.58
2023-07-22T05:07:46.815Z,1003.59
2023-07-22T05:08:16.777Z,1003.59
2023-07-22T05:08:46.772Z,1003.58
2023-07-22T05:09:16.725Z,1003.58
2023-07-22T05:09:46.727Z,1003.58
2023-07-22T05:10:16.768Z,1003.58
2023-07-22T05:10:46.749Z,1003.58
2023-07-22T05:11:19.762Z,1003.56
2023-07-22T05:12:04.886Z,1003.56
2023-07-22T05:12:16.738Z,1003.55
2023-07-22T05:12:46.743Z,1003.55
2023-07-22T05:13:16.741Z,1003.54
2023-07-22T05:13:46.726Z,1003.53
2023-07-22T05:14:16.705Z,1003.54
2023-07-22T05:14:46.684Z,1003.53
2023-07-22T05:15:16.724Z,1003.53
2023-07-22T05:15:46.755Z,1003.54
2023-07-22T05:16:16.737Z,1003.54
2023-07-22T05:16:46.679Z,1003.54
2023-07-22T05:17:19.718Z,1003.54
2023-07-22T05:18:04.813Z,1003.53
2023-07-22T05:18:16.739Z,1003.52
2023-07-22T05:18:47.557Z,1003.52
2023-07-22T05:19:16.643Z,1003.51
2023-07-22T05:19:46.673Z,1003.52
2023-07-22T05:20:16.696Z,1003.53
2023-07-22T05:20:46.609Z,1003.53
2023-07-22T05:21:16.611Z,1003.51
2023-07-22T05:21:46.610Z,1003.52
2023-07-22T05:22:16.593Z,1003.51
2023-07-22T05:22:46.595Z,1003.51
2023-07-22T05:23:19.602Z,1003.49
2023-07-22T05:24:04.763Z,1003.49
2023-07-22T05:24:16.590Z,1003.49
2023-07-22T05:24:46.680Z,1003.49
2023-07-22T05:25:16.554Z,1003.48
2023-07-22T05:25:46.591Z,1003.49
2023-07-22T05:26:16.557Z,1003.50
2023-07-22T05:26:58.867Z,1003.50
2023-07-22T05:27:16.581Z,1003.52
2023-07-22T05:27:46.546Z,1003.53
2023-07-22T05:28:16.523Z,1003.52
2023-07-22T05:28:46.543Z,1003.53
2023-07-22T05:29:19.574Z,1003.55
2023-07-22T05:30:08.723Z,1003.57
2023-07-22T05:30:32.939Z,1003.58
2023-07-22T05:30:46.547Z,1003.59
2023-07-22T05:31:16.548Z,1003.59
2023-07-22T05:31:46.484Z,1003.59
2023-07-22T05:32:32.568Z,1003.59
2023-07-22T05:32:46.555Z,1003.60
2023-07-22T05:33:16.501Z,1003.60
2023-07-22T05:33:46.491Z,1003.62
2023-07-22T05:34:16.452Z,1003.63
2023-07-22T05:34:46.459Z,1003.63
2023-07-22T05:35:19.471Z,1003.63
2023-07-22T05:36:04.596Z,1003.63
2023-07-22T05:36:16.488Z,1003.63
2023-07-22T05:36:46.436Z,1003.62
2023-07-22T05:37:16.524Z,1003.62
2023-07-22T05:37:46.459Z,1003.63
2023-07-22T05:38:16.468Z,1003.63
2023-07-22T05:38:46.432Z,1003.63
2023-07-22T05:39:16.572Z,1003.61
2023-07-22T05:39:46.414Z,1003.61
2023-07-22T05:40:16.420Z,1003.61
2023-07-22T05:40:46.410Z,1003.61
2023-07-22T05:41:19.409Z,1003.59
2023-07-22T05:42:04.517Z,1003.59
2023-07-22T05:42:16.395Z,1003.59
2023-07-22T05:42:46.402Z,1003.57
2023-07-22T05:43:16.461Z,1003.57
2023-07-22T05:43:46.364Z,1003.58
2023-07-22T05:44:16.383Z,1003.54
2023-07-22T05:44:46.392Z,1003.56
2023-07-22T05:45:16.391Z,1003.58
2023-07-22T05:45:46.331Z,1003.57
2023-07-22T05:46:16.596Z,1003.58
2023-07-22T05:46:46.457Z,1003.55
2023-07-22T05:47:19.634Z,1003.55
2023-07-22T05:48:04.541Z,1003.55
2023-07-22T05:48:16.425Z,1003.55
2023-07-22T05:48:46.321Z,1003.54
2023-07-22T05:49:16.374Z,1003.53
2023-07-22T05:49:46.319Z,1003.53
2023-07-22T05:50:16.315Z,1003.53
2023-07-22T05:50:46.319Z,1003.53
2023-07-22T05:51:16.371Z,1003.54
2023-07-22T05:51:46.290Z,1003.58
2023-07-22T05:52:16.301Z,1003.55
2023-07-22T05:52:46.274Z,1003.56
2023-07-22T05:53:19.283Z,1003.62
2023-07-22T05:54:04.375Z,1003.56
2023-07-22T05:54:16.262Z,1003.55
2023-07-22T05:54:46.286Z,1003.59
2023-07-22T05:55:16.347Z,1003.60
2023-07-22T05:55:46.265Z,1003.58
2023-07-22T05:56:16.248Z,1003.57
2023-07-22T05:56:46.262Z,1003.58
2023-07-22T05:57:16.256Z,1003.58
2023-07-22T05:57:46.245Z,1003.58
2023-07-22T05:58:16.237Z,1003.61
2023-07-22T05:58:46.219Z,1003.60
2023-07-22T05:59:22.188Z,1003.61
2023-07-22T06:00:09.112Z,1003.63
2023-07-22T06:00:16.281Z,1003.63
2023-07-22T06:00:46.184Z,1003.64
2023-07-22T06:01:16.272Z,1003.65
2023-07-22T06:01:46.213Z,1003.65
2023-07-22T06:02:16.380Z,1003.64
2023-07-22T06:02:46.216Z,1003.68